Aeroporto :
LOGIN :

Iscrizione | Disclaimer

   EN    FR    IT 

 










Sommario :    VFR   VFR Marginale   IFR   IFR Intensivo   IFR Molto Intensivo
Visibilità : 
Base nubi : 
>= 8 km
>= 3000ft
5 / 8 km
1000 / 3000 ft
1500m / 5 km
500 / 1000 ft
800 / 1500m
200 / 500 ft
< 800m
< 200 ft
Simboli :   Temporali  Nebbia  Neve Forte  Precipitazioni Forti  Vento > 20 kt
SIGMETs :   Varie  Temporali  Ghiacco  Turbolenza  Onda orograficha  Ceneri Vulcaniche






- Altitudine del aeroporto : 1247 ft
- Codice IATA : PRG


LKPR - Praha Ruzyne

ULTIMO METAR :
  • 222200Z 15004KT CAVOK 17/11 Q1009 NOSIG

METARs OBSOLETI :
  • 222130Z 15004KT CAVOK 18/12 Q1010 NOSIG
  • 222100Z 15005KT CAVOK 17/12 Q1010 NOSIG
  • 222030Z 15004KT CAVOK 18/13 Q1010 NOSIG
  • 222000Z 15005KT CAVOK 19/12 Q1010 NOSIG

TAF TAF LKPR
Valido dal 22 a 18 ore il 24 a 00 ore UTC


221700Z 2218/2400 16005KT CAVOK
BECMG 2301/2303 2000 BR NSC
TEMPO 2303/2306 VRB02KT 1200 BR SCT002
PROB30
TEMPO 2303/2306 0600 FG BKN002
BECMG 2306/2309 24006KT 9999 SCT043
TEMPO 2309/2320 SHRA BKN040TCU
PROB30
TEMPO 2310/2317 4000 TSRA SCT030CB
BECMG 2323/2400 5000 BR NSC



MetMap, La meteo Aeronautica in un colpo d'occhio ! - Copyright ORBIFLY Dicembre 2007 - Disclaimer

ORBIFLY MET'MAP TEAM :

Programmazione e sviluppo : Alexandra Zaïnal
Concezione : Baudouin d'Aumeries
Aiuto per la programmazione : Marc-Olivier Méhu
Supporto tecnico e logistico : Manuel Goepfert
Aiuto per la traduzione : Arnaldo La Scala

Contatto : metmap@orbifly.com




FONTI E CREDITI :

   NOAA